Time;durP1;ratioP1;P1;durP2;ratioP2;P2;SDS_P1;SDS_P2;PMS_P1;PMS_P2;Temp;Humidity;BMP_temperature;BMP_pressure;BME280_temperature;BME280_humidity;BME280_pressure;Samples;Min_cycle;Max_cycle;Signal;HPM_P1;HPM_P2
2023/07/10 00:00:04;;;;;;;10.80;7.60;;;;;;;;;;107836;1258;25380;-79
2023/07/10 00:02:31;;;;;;;11.20;7.40;;;;;;;;;;107908;1253;24232;-79
2023/07/10 00:04:57;;;;;;;12.30;8.40;;;;;;;;;;107975;1250;22524;-79
2023/07/10 00:07:23;;;;;;;10.70;8.00;;;;;;;;;;107933;1252;22914;-79
2023/07/10 00:09:50;;;;;;;11.60;8.10;;;;;;;;;;107492;1250;23005;-79
2023/07/10 00:12:18;;;;;;;11.90;8.70;;;;;;;;;;107473;1253;23182;-79
2023/07/10 00:14:44;;;;;;;10.20;7.60;;;;;;;;;;107437;1251;22551;-80
2023/07/10 00:17:10;;;;;;;11.80;7.80;;;;;;;;;;107452;1253;22521;-79
2023/07/10 00:19:37;;;;;;;12.00;8.40;;;;;;;;;;107444;1251;22544;-79
2023/07/10 00:22:03;;;;;;;9.90;6.90;;;;;;;;;;107414;1253;22995;-79
2023/07/10 00:24:30;;;;;;;13.30;8.90;;;;;;;;;;107455;1250;24190;-79
2023/07/10 00:26:56;;;;;;;9.50;7.30;;;;;;;;;;107459;1253;23950;-79
2023/07/10 00:29:24;;;;;;;11.70;8.40;;;;;;;;;;107445;1253;23956;-79
2023/07/10 00:31:51;;;;;;;12.30;8.30;;;;;;;;;;107462;1251;25836;-79
2023/07/10 00:34:17;;;;;;;13.30;8.60;;;;;;;;;;107486;1253;25381;-79
2023/07/10 00:36:45;;;;;;;9.10;7.30;;;;;;;;;;107503;1250;22874;-80
2023/07/10 00:39:25;;;;;;;10.40;7.50;;;;;;;;;;107707;1251;25465;-80
2023/07/10 00:41:55;;;;;;;15.80;7.30;;;;;;;;;;107510;1251;25274;-81
2023/07/10 00:44:23;;;;;;;12.50;7.90;;;;;;;;;;107870;1252;23025;-80
2023/07/10 00:46:51;;;;;;;12.40;7.80;;;;;;;;;;107868;1251;23357;-80
2023/07/10 00:49:26;;;;;;;9.30;7.40;;;;;;;;;;108186;1250;22521;-80
2023/07/10 00:52:08;;;;;;;10.30;7.80;;;;;;;;;;107962;1253;22543;-80
2023/07/10 00:54:35;;;;;;;12.90;8.60;;;;;;;;;;107875;1251;23269;-80
2023/07/10 00:57:02;;;;;;;11.10;7.30;;;;;;;;;;107982;1254;22715;-80
2023/07/10 00:59:29;;;;;;;10.90;7.80;;;;;;;;;;107972;1252;22595;-80
2023/07/10 01:02:07;;;;;;;10.50;7.80;;;;;;;;;;107931;1253;23278;-80
2023/07/10 01:04:34;;;;;;;14.00;8.10;;;;;;;;;;107968;1251;25060;-80
2023/07/10 01:07:01;;;;;;;9.40;6.90;;;;;;;;;;107927;1253;22533;-80
2023/07/10 01:09:27;;;;;;;10.20;7.70;;;;;;;;;;107950;1250;22557;-80
2023/07/10 01:11:53;;;;;;;11.80;7.50;;;;;;;;;;107908;1256;22523;-80
2023/07/10 01:14:20;;;;;;;9.90;7.50;;;;;;;;;;107957;1254;22529;-80
2023/07/10 01:16:47;;;;;;;9.90;7.80;;;;;;;;;;107928;1253;24179;-80
2023/07/10 01:19:18;;;;;;;9.40;6.60;;;;;;;;;;107949;1253;22707;-80
2023/07/10 01:21:44;;;;;;;9.30;7.70;;;;;;;;;;107989;1254;22566;-80
2023/07/10 01:24:11;;;;;;;19.60;8.60;;;;;;;;;;107991;1253;22585;-80
2023/07/10 01:26:38;;;;;;;11.50;8.40;;;;;;;;;;107952;1253;22537;-80
2023/07/10 01:29:05;;;;;;;8.90;7.90;;;;;;;;;;107957;1255;25279;-80
2023/07/10 01:31:32;;;;;;;12.20;8.80;;;;;;;;;;107892;1253;23008;-79
2023/07/10 01:34:00;;;;;;;11.40;7.70;;;;;;;;;;107937;1252;22626;-80
2023/07/10 01:36:28;;;;;;;9.40;8.00;;;;;;;;;;107994;1254;26338;-80
2023/07/10 01:38:55;;;;;;;13.00;8.60;;;;;;;;;;107942;1254;25700;-80
2023/07/10 01:41:27;;;;;;;10.20;6.50;;;;;;;;;;107979;1250;22522;-80
2023/07/10 01:43:54;;;;;;;12.10;7.30;;;;;;;;;;107923;1251;22669;-80
2023/07/10 01:46:22;;;;;;;10.70;7.90;;;;;;;;;;107963;1251;22535;-80
2023/07/10 01:48:50;;;;;;;10.90;8.70;;;;;;;;;;107989;1254;25252;-80
2023/07/10 01:51:17;;;;;;;10.80;8.30;;;;;;;;;;107993;1251;22657;-80
2023/07/10 01:53:44;;;;;;;10.00;6.90;;;;;;;;;;107977;1253;22518;-80
2023/07/10 01:56:11;;;;;;;16.50;7.80;;;;;;;;;;107929;1251;22534;-80
2023/07/10 01:58:38;;;;;;;10.80;7.90;;;;;;;;;;107989;1253;25399;-79
2023/07/10 02:01:04;;;;;;;14.40;8.60;;;;;;;;;;107949;1253;22612;-80
2023/07/10 02:03:30;;;;;;;10.70;7.60;;;;;;;;;;108037;1250;22542;-80
2023/07/10 02:05:57;;;;;;;10.80;7.50;;;;;;;;;;107996;1251;22534;-80
2023/07/10 02:08:25;;;;;;;9.30;6.60;;;;;;;;;;110783;1251;22471;-80
2023/07/10 02:10:51;;;;;;;10.80;8.50;;;;;;;;;;110775;1250;22531;-80
2023/07/10 02:13:17;;;;;;;12.00;8.70;;;;;;;;;;109767;1253;22591;-80
2023/07/10 02:15:44;;;;;;;13.30;7.10;;;;;;;;;;107976;1253;22521;-80
2023/07/10 02:18:10;;;;;;;9.20;7.10;;;;;;;;;;108040;1253;22551;-80
2023/07/10 02:20:39;;;;;;;9.20;7.90;;;;;;;;;;107954;1253;22837;-80
2023/07/10 02:23:05;;;;;;;11.60;8.60;;;;;;;;;;108014;1251;25387;-80
2023/07/10 02:25:31;;;;;;;8.60;7.40;;;;;;;;;;107968;1251;25373;-79
2023/07/10 02:27:58;;;;;;;11.60;8.60;;;;;;;;;;107986;1251;22537;-79
2023/07/10 02:30:25;;;;;;;12.30;7.80;;;;;;;;;;109449;1251;22954;-80
2023/07/10 02:32:51;;;;;;;11.80;7.30;;;;;;;;;;110794;1253;22887;-80
2023/07/10 02:35:18;;;;;;;11.50;8.00;;;;;;;;;;110761;1252;22871;-80
2023/07/10 02:37:44;;;;;;;11.10;7.90;;;;;;;;;;110434;1251;22587;-80
2023/07/10 02:40:10;;;;;;;10.40;7.70;;;;;;;;;;108231;1251;24202;-81
2023/07/10 02:42:37;;;;;;;9.30;7.20;;;;;;;;;;107992;1253;22515;-80
2023/07/10 02:45:03;;;;;;;10.60;7.50;;;;;;;;;;107975;1251;25307;-80
2023/07/10 02:47:29;;;;;;;8.30;7.10;;;;;;;;;;107965;1253;23193;-79
2023/07/10 02:49:56;;;;;;;9.40;7.00;;;;;;;;;;107918;1254;24341;-79
2023/07/10 02:52:22;;;;;;;10.30;7.80;;;;;;;;;;107956;1250;22614;-80
2023/07/10 02:54:48;;;;;;;11.40;8.10;;;;;;;;;;108003;1253;22592;-80
2023/07/10 02:57:15;;;;;;;11.60;7.90;;;;;;;;;;107931;1253;22519;-79
2023/07/10 02:59:41;;;;;;;14.00;7.80;;;;;;;;;;107978;1253;25448;-79
2023/07/10 03:02:08;;;;;;;9.80;7.10;;;;;;;;;;109169;1251;22452;-80
2023/07/10 03:04:34;;;;;;;11.10;7.70;;;;;;;;;;108097;1253;22972;-80
2023/07/10 03:07:01;;;;;;;12.60;7.90;;;;;;;;;;107962;1253;22596;-80
2023/07/10 03:09:27;;;;;;;9.50;7.10;;;;;;;;;;107942;1251;22992;-79
2023/07/10 03:11:53;;;;;;;11.40;6.90;;;;;;;;;;107988;1253;22522;-79
2023/07/10 03:14:20;;;;;;;12.30;6.90;;;;;;;;;;107440;1254;23594;-79
2023/07/10 03:16:47;;;;;;;12.40;7.80;;;;;;;;;;107285;1251;23295;-79
2023/07/10 03:19:13;;;;;;;11.80;7.20;;;;;;;;;;107456;1255;22543;-80
2023/07/10 03:21:39;;;;;;;8.30;6.60;;;;;;;;;;107454;1254;22531;-79
2023/07/10 03:24:06;;;;;;;11.90;6.60;;;;;;;;;;107468;1251;25381;-79
2023/07/10 03:26:32;;;;;;;9.30;7.10;;;;;;;;;;107528;1251;23045;-79
2023/07/10 03:29:02;;;;;;;10.40;7.80;;;;;;;;;;107486;1253;25274;-79
2023/07/10 03:31:29;;;;;;;10.00;7.10;;;;;;;;;;107456;1251;22686;-79
2023/07/10 03:33:55;;;;;;;11.40;8.10;;;;;;;;;;107425;1252;22644;-79
2023/07/10 03:36:21;;;;;;;11.00;7.30;;;;;;;;;;107502;1252;22619;-79
2023/07/10 03:38:48;;;;;;;10.80;8.00;;;;;;;;;;107485;1251;23795;-79
2023/07/10 03:41:14;;;;;;;13.30;8.70;;;;;;;;;;107975;1250;22530;-79
2023/07/10 03:43:41;;;;;;;10.60;7.70;;;;;;;;;;107993;1253;22532;-79
2023/07/10 03:46:07;;;;;;;13.80;8.40;;;;;;;;;;107828;1252;23249;-79
2023/07/10 03:48:33;;;;;;;9.70;7.30;;;;;;;;;;107920;1251;22534;-79
2023/07/10 03:51:00;;;;;;;9.30;6.80;;;;;;;;;;107939;1253;24205;-79
2023/07/10 03:53:27;;;;;;;11.90;8.10;;;;;;;;;;107962;1250;22538;-79
2023/07/10 03:55:54;;;;;;;10.70;8.20;;;;;;;;;;107790;1251;26072;-79
2023/07/10 03:58:22;;;;;;;8.60;7.20;;;;;;;;;;107778;1256;24375;-79
2023/07/10 04:00:49;;;;;;;11.00;7.00;;;;;;;;;;107892;1255;27552;-79
2023/07/10 04:03:15;;;;;;;14.20;7.80;;;;;;;;;;107987;1251;25461;-79
2023/07/10 04:05:42;;;;;;;10.50;7.60;;;;;;;;;;107857;1255;22536;-79
2023/07/10 04:08:08;;;;;;;10.60;7.20;;;;;;;;;;107905;1251;24805;-79
2023/07/10 04:10:36;;;;;;;8.90;6.80;;;;;;;;;;107432;1251;22538;-79
2023/07/10 04:13:02;;;;;;;9.80;7.80;;;;;;;;;;107951;1253;25531;-79
2023/07/10 04:15:28;;;;;;;13.90;7.20;;;;;;;;;;107414;1251;23043;-79
2023/07/10 04:17:55;;;;;;;9.60;7.20;;;;;;;;;;107455;1251;22542;-79
2023/07/10 04:20:21;;;;;;;17.90;9.50;;;;;;;;;;108502;1251;22738;-79
2023/07/10 04:22:47;;;;;;;12.10;8.80;;;;;;;;;;107435;1255;22650;-79
2023/07/10 04:25:14;;;;;;;10.00;9.00;;;;;;;;;;107436;1251;25449;-79
2023/07/10 04:27:40;;;;;;;13.30;8.20;;;;;;;;;;107413;1251;22528;-79
2023/07/10 04:30:07;;;;;;;13.70;8.10;;;;;;;;;;107439;1255;22544;-79
2023/07/10 04:32:33;;;;;;;18.70;9.30;;;;;;;;;;107434;1251;25470;-79
2023/07/10 04:35:00;;;;;;;10.80;8.20;;;;;;;;;;107443;1251;22525;-79
2023/07/10 04:37:26;;;;;;;9.40;8.20;;;;;;;;;;107426;1253;24308;-79
2023/07/10 04:39:52;;;;;;;13.80;8.50;;;;;;;;;;107463;1251;22611;-79
2023/07/10 04:42:19;;;;;;;13.40;7.70;;;;;;;;;;107435;1255;25270;-79
2023/07/10 04:44:45;;;;;;;10.80;7.00;;;;;;;;;;107518;1255;23285;-79
2023/07/10 04:47:12;;;;;;;12.70;6.90;;;;;;;;;;107407;1255;23013;-80
2023/07/10 04:49:38;;;;;;;10.80;8.90;;;;;;;;;;107505;1256;23999;-79
2023/07/10 04:52:05;;;;;;;10.70;7.90;;;;;;;;;;107590;1255;23948;-79
2023/07/10 04:54:31;;;;;;;9.90;7.40;;;;;;;;;;107383;1257;22546;-79
2023/07/10 04:56:58;;;;;;;8.50;6.50;;;;;;;;;;107506;1251;24289;-80
2023/07/10 04:59:24;;;;;;;10.40;7.50;;;;;;;;;;107501;1255;22547;-80
2023/07/10 05:01:50;;;;;;;11.10;7.10;;;;;;;;;;107958;1251;24272;-80
2023/07/10 05:04:17;;;;;;;11.50;7.60;;;;;;;;;;107907;1254;22539;-79
2023/07/10 05:06:43;;;;;;;11.90;8.50;;;;;;;;;;108099;1255;25577;-80
2023/07/10 05:09:09;;;;;;;10.20;7.60;;;;;;;;;;108294;1251;22962;-80
2023/07/10 05:11:36;;;;;;;12.60;8.70;;;;;;;;;;108261;1255;24223;-80
2023/07/10 05:14:02;;;;;;;14.50;8.50;;;;;;;;;;108225;1251;22623;-80
2023/07/10 05:16:29;;;;;;;22.00;8.10;;;;;;;;;;108259;1251;24275;-79
2023/07/10 05:18:55;;;;;;;10.10;8.80;;;;;;;;;;108435;1252;22862;-80
2023/07/10 05:21:22;;;;;;;11.40;7.90;;;;;;;;;;108072;1253;22528;-80
2023/07/10 05:23:48;;;;;;;10.20;8.00;;;;;;;;;;107913;1255;22524;-80
2023/07/10 05:26:15;;;;;;;9.20;7.60;;;;;;;;;;107933;1256;22635;-80
2023/07/10 05:28:42;;;;;;;10.30;7.30;;;;;;;;;;107886;1255;25162;-80
2023/07/10 05:31:09;;;;;;;9.30;6.80;;;;;;;;;;108027;1256;22635;-81
2023/07/10 05:33:35;;;;;;;10.40;7.20;;;;;;;;;;108104;1255;25352;-80
2023/07/10 05:36:03;;;;;;;11.20;7.40;;;;;;;;;;107920;1256;22725;-80
2023/07/10 05:38:30;;;;;;;9.40;7.40;;;;;;;;;;108000;1251;22595;-80
2023/07/10 05:40:56;;;;;;;13.10;7.20;;;;;;;;;;107949;1251;23366;-80
2023/07/10 05:43:23;;;;;;;11.50;7.80;;;;;;;;;;107999;1251;22603;-80
2023/07/10 05:45:49;;;;;;;8.30;6.90;;;;;;;;;;107813;1251;22541;-80
2023/07/10 05:48:16;;;;;;;8.50;6.80;;;;;;;;;;107934;1254;22542;-80
2023/07/10 05:50:43;;;;;;;8.00;7.20;;;;;;;;;;107940;1251;24220;-80
2023/07/10 05:53:09;;;;;;;10.20;7.20;;;;;;;;;;108049;1255;25506;-80
2023/07/10 05:55:35;;;;;;;7.90;6.40;;;;;;;;;;108035;1254;22523;-80
2023/07/10 05:58:02;;;;;;;9.20;6.80;;;;;;;;;;107845;1251;22703;-80
2023/07/10 06:00:28;;;;;;;8.50;7.00;;;;;;;;;;107869;1253;22555;-80
2023/07/10 06:02:55;;;;;;;10.10;7.10;;;;;;;;;;107787;1256;24244;-80
2023/07/10 06:05:21;;;;;;;12.70;7.30;;;;;;;;;;107895;1252;22546;-80
2023/07/10 06:07:48;;;;;;;12.20;7.80;;;;;;;;;;108159;1253;25481;-81
2023/07/10 06:10:14;;;;;;;8.60;6.70;;;;;;;;;;107872;1251;23501;-80
2023/07/10 06:12:41;;;;;;;9.30;6.80;;;;;;;;;;107913;1251;22577;-80
2023/07/10 06:15:08;;;;;;;7.60;6.60;;;;;;;;;;107946;1251;25506;-80
2023/07/10 06:17:35;;;;;;;9.00;6.60;;;;;;;;;;107978;1255;25461;-80
2023/07/10 06:20:01;;;;;;;11.40;8.10;;;;;;;;;;108063;1251;23764;-80
2023/07/10 06:22:27;;;;;;;8.20;7.00;;;;;;;;;;107997;1253;22528;-80
2023/07/10 06:24:54;;;;;;;7.90;6.20;;;;;;;;;;108066;1251;22541;-79
2023/07/10 06:27:20;;;;;;;8.60;6.70;;;;;;;;;;107859;1252;25471;-79
2023/07/10 06:29:47;;;;;;;10.70;7.80;;;;;;;;;;108206;1255;23232;-79
2023/07/10 06:32:13;;;;;;;9.80;6.40;;;;;;;;;;108194;1251;22553;-79
2023/07/10 06:34:39;;;;;;;8.80;7.20;;;;;;;;;;107980;1253;22569;-79
2023/07/10 06:37:06;;;;;;;10.70;6.50;;;;;;;;;;108191;1251;23711;-80
2023/07/10 06:39:32;;;;;;;7.80;6.70;;;;;;;;;;108664;1255;22521;-80
2023/07/10 06:41:59;;;;;;;9.00;6.40;;;;;;;;;;108323;1251;22522;-80
2023/07/10 06:44:25;;;;;;;8.70;6.00;;;;;;;;;;108354;1251;25323;-80
2023/07/10 06:46:52;;;;;;;7.30;6.10;;;;;;;;;;108595;1255;22542;-80
2023/07/10 06:49:18;;;;;;;8.50;6.80;;;;;;;;;;108225;1253;22726;-79
2023/07/10 06:51:44;;;;;;;10.40;7.10;;;;;;;;;;108101;1251;25471;-80
2023/07/10 06:54:11;;;;;;;6.80;5.40;;;;;;;;;;108041;1251;22566;-80
2023/07/10 06:56:37;;;;;;;10.50;5.50;;;;;;;;;;107981;1251;22670;-80
2023/07/10 06:59:03;;;;;;;9.40;6.30;;;;;;;;;;108231;1251;22564;-80
2023/07/10 07:01:30;;;;;;;8.30;6.00;;;;;;;;;;108374;1251;23247;-80
2023/07/10 07:03:56;;;;;;;7.70;6.20;;;;;;;;;;108200;1251;24197;-79
2023/07/10 07:06:23;;;;;;;8.50;5.80;;;;;;;;;;108130;1251;23114;-80
2023/07/10 07:08:49;;;;;;;13.10;6.80;;;;;;;;;;108090;1251;173173;-80
2023/07/10 07:11:16;;;;;;;6.40;5.70;;;;;;;;;;108081;1254;23217;-80
2023/07/10 07:13:42;;;;;;;8.40;6.30;;;;;;;;;;108127;1251;22975;-81
2023/07/10 07:16:09;;;;;;;7.50;5.70;;;;;;;;;;108411;1254;22560;-80
2023/07/10 07:18:35;;;;;;;6.90;5.40;;;;;;;;;;108059;1254;22717;-80
2023/07/10 07:21:02;;;;;;;8.90;6.80;;;;;;;;;;108146;1251;22521;-80
2023/07/10 07:23:28;;;;;;;11.30;6.30;;;;;;;;;;108078;1251;24240;-80
2023/07/10 07:25:55;;;;;;;13.20;6.40;;;;;;;;;;108038;1251;23255;-80
2023/07/10 07:28:21;;;;;;;18.80;6.60;;;;;;;;;;108115;1251;26532;-80
2023/07/10 07:30:48;;;;;;;7.50;5.20;;;;;;;;;;108231;1251;23311;-80
2023/07/10 07:33:15;;;;;;;7.70;5.70;;;;;;;;;;108326;1254;25623;-81
2023/07/10 07:35:41;;;;;;;6.10;5.20;;;;;;;;;;108059;1251;22553;-80
2023/07/10 07:38:07;;;;;;;6.10;5.30;;;;;;;;;;108117;1255;22563;-80
2023/07/10 07:40:35;;;;;;;8.10;5.70;;;;;;;;;;108196;1254;22556;-80
2023/07/10 07:43:01;;;;;;;6.80;5.40;;;;;;;;;;109170;1251;22546;-81
2023/07/10 07:45:27;;;;;;;7.80;5.40;;;;;;;;;;108218;1254;25429;-80
2023/07/10 07:47:54;;;;;;;9.70;5.60;;;;;;;;;;108113;1251;22525;-80
2023/07/10 07:50:20;;;;;;;6.50;5.20;;;;;;;;;;108091;1251;24580;-80
2023/07/10 07:52:47;;;;;;;10.50;5.60;;;;;;;;;;108353;1251;22450;-80
2023/07/10 07:55:13;;;;;;;10.40;4.90;;;;;;;;;;108201;1251;24197;-80
2023/07/10 07:57:40;;;;;;;8.10;5.70;;;;;;;;;;108159;1251;22499;-80
2023/07/10 08:00:06;;;;;;;10.00;5.40;;;;;;;;;;108408;1251;22633;-80
2023/07/10 08:02:33;;;;;;;8.10;5.60;;;;;;;;;;108110;1251;23201;-80
2023/07/10 08:05:00;;;;;;;7.50;5.70;;;;;;;;;;108479;1251;22528;-80
2023/07/10 08:07:27;;;;;;;9.90;5.50;;;;;;;;;;108267;1251;22593;-80
2023/07/10 08:09:53;;;;;;;7.00;5.30;;;;;;;;;;108484;1251;23741;-80
2023/07/10 08:12:19;;;;;;;8.00;5.40;;;;;;;;;;108300;1254;22616;-80
2023/07/10 08:14:46;;;;;;;5.30;4.20;;;;;;;;;;108303;1251;22691;-80
2023/07/10 08:17:12;;;;;;;5.90;4.70;;;;;;;;;;108290;1251;24361;-80
2023/07/10 08:19:38;;;;;;;4.40;4.00;;;;;;;;;;108438;1250;23006;-80
2023/07/10 08:22:05;;;;;;;5.60;4.80;;;;;;;;;;108315;1250;24271;-81
2023/07/10 08:24:31;;;;;;;6.80;4.10;;;;;;;;;;108425;1251;24183;-81
2023/07/10 08:26:58;;;;;;;7.50;3.70;;;;;;;;;;108330;1254;22519;-81
2023/07/10 08:29:25;;;;;;;9.00;4.30;;;;;;;;;;108121;1267;22533;-81
2023/07/10 08:31:53;;;;;;;6.30;3.70;;;;;;;;;;108245;1251;22534;-81
2023/07/10 08:34:19;;;;;;;4.60;3.90;;;;;;;;;;108305;1251;23514;-81
2023/07/10 08:36:46;;;;;;;3.70;3.10;;;;;;;;;;108397;1251;22597;-81
2023/07/10 08:39:14;;;;;;;4.30;3.20;;;;;;;;;;108423;1250;22611;-81
2023/07/10 08:41:41;;;;;;;4.90;3.30;;;;;;;;;;108370;1251;25227;-81
2023/07/10 08:44:09;;;;;;;5.70;3.40;;;;;;;;;;108494;1251;22567;-81
2023/07/10 08:46:35;;;;;;;5.00;2.90;;;;;;;;;;108478;1251;22671;-81
2023/07/10 08:49:07;;;;;;;3.50;2.90;;;;;;;;;;108633;1251;22640;-81
2023/07/10 08:51:36;;;;;;;5.30;2.60;;;;;;;;;;108490;1250;22547;-81
2023/07/10 08:54:05;;;;;;;5.50;3.50;;;;;;;;;;108480;1251;23373;-81
2023/07/10 08:56:33;;;;;;;2.90;2.10;;;;;;;;;;108278;1251;22756;-81
2023/07/10 08:59:09;;;;;;;5.50;3.20;;;;;;;;;;109433;1251;22599;-81
2023/07/10 09:01:36;;;;;;;5.30;2.60;;;;;;;;;;108489;1251;22597;-80
2023/07/10 09:04:04;;;;;;;3.70;2.10;;;;;;;;;;108319;1251;22491;-81
2023/07/10 09:06:30;;;;;;;6.40;4.70;;;;;;;;;;108291;1251;23135;-82
2023/07/10 09:08:57;;;;;;;4.30;2.60;;;;;;;;;;108562;1251;23294;-82
2023/07/10 09:11:23;;;;;;;6.40;2.50;;;;;;;;;;108282;1250;22559;-81
2023/07/10 09:13:50;;;;;;;4.40;2.80;;;;;;;;;;108131;1251;22571;-81
2023/07/10 09:16:17;;;;;;;2.70;2.30;;;;;;;;;;108283;1250;23207;-81
2023/07/10 09:18:48;;;;;;;3.00;2.40;;;;;;;;;;108472;1251;22560;-81
2023/07/10 09:21:14;;;;;;;3.20;2.10;;;;;;;;;;108164;1251;22767;-81
2023/07/10 09:23:40;;;;;;;3.70;2.60;;;;;;;;;;108147;1251;22535;-81
2023/07/10 09:26:11;;;;;;;4.10;2.90;;;;;;;;;;107988;1251;24296;-81
2023/07/10 09:28:38;;;;;;;4.20;2.80;;;;;;;;;;108276;1251;23272;-81
2023/07/10 09:31:08;;;;;;;6.90;3.00;;;;;;;;;;108180;1251;22644;-82
2023/07/10 09:33:38;;;;;;;4.30;3.20;;;;;;;;;;108109;1251;22544;-82
2023/07/10 09:36:11;;;;;;;4.90;2.60;;;;;;;;;;107940;1257;22538;-82
2023/07/10 09:38:37;;;;;;;4.40;2.70;;;;;;;;;;108127;1251;24263;-82
2023/07/10 09:41:09;;;;;;;7.70;2.70;;;;;;;;;;108271;1251;22514;-82
2023/07/10 09:43:36;;;;;;;3.70;2.60;;;;;;;;;;108065;1251;27192;-81
2023/07/10 09:46:03;;;;;;;3.70;2.90;;;;;;;;;;108069;1251;23030;-82
2023/07/10 09:48:29;;;;;;;19.30;3.70;;;;;;;;;;108195;1251;22522;-81
2023/07/10 09:50:55;;;;;;;3.40;3.00;;;;;;;;;;108261;1250;25457;-82
2023/07/10 09:53:23;;;;;;;4.50;2.80;;;;;;;;;;108029;1251;22535;-82
2023/07/10 09:55:49;;;;;;;5.80;3.30;;;;;;;;;;108135;1250;22520;-82
2023/07/10 09:58:16;;;;;;;6.00;2.80;;;;;;;;;;108385;1251;25342;-82
2023/07/10 10:00:42;;;;;;;8.60;3.00;;;;;;;;;;108414;1251;26320;-82
2023/07/10 10:03:12;;;;;;;4.60;2.90;;;;;;;;;;108127;1251;22539;-81
2023/07/10 10:05:41;;;;;;;5.30;2.90;;;;;;;;;;108016;1251;22527;-82
2023/07/10 10:08:15;;;;;;;4.30;3.00;;;;;;;;;;108277;1251;22631;-82
2023/07/10 10:10:42;;;;;;;6.30;3.20;;;;;;;;;;108108;1251;22601;-81
2023/07/10 10:13:15;;;;;;;10.30;3.40;;;;;;;;;;108167;1251;22624;-81
2023/07/10 10:15:53;;;;;;;5.20;3.20;;;;;;;;;;108130;1251;22517;-82
2023/07/10 10:18:20;;;;;;;;;;;;;;;;;;108359;1251;22609;-82
2023/07/10 10:20:46;;;;;;;3.60;2.70;;;;;;;;;;108503;1251;23396;-82
2023/07/10 10:23:21;;;;;;;4.30;2.90;;;;;;;;;;108156;1251;22501;-82
2023/07/10 10:25:48;;;;;;;5.10;2.90;;;;;;;;;;107832;1251;24119;-82
2023/07/10 10:28:24;;;;;;;4.20;3.10;;;;;;;;;;107982;1252;25500;-82
2023/07/10 10:30:50;;;;;;;3.80;3.10;;;;;;;;;;108141;1251;22576;-82
2023/07/10 10:33:21;;;;;;;4.10;2.90;;;;;;;;;;108116;1254;22535;-82
2023/07/10 10:35:56;;;;;;;7.10;3.10;;;;;;;;;;108071;1251;25332;-82
2023/07/10 10:38:22;;;;;;;5.00;2.60;;;;;;;;;;108662;1251;23172;-82
2023/07/10 10:40:50;;;;;;;6.10;3.10;;;;;;;;;;109037;1251;22626;-82
2023/07/10 10:43:28;;;;;;;4.30;3.10;;;;;;;;;;108085;1251;23215;-82
2023/07/10 10:45:58;;;;;;;5.10;2.80;;;;;;;;;;107942;1252;25541;-82
2023/07/10 10:48:28;;;;;;;4.40;2.70;;;;;;;;;;108124;1251;25164;-82
2023/07/10 10:51:04;;;;;;;4.20;2.80;;;;;;;;;;108207;1251;22617;-82
2023/07/10 10:53:39;;;;;;;4.30;3.10;;;;;;;;;;108130;1252;22610;-83
2023/07/10 10:56:32;;;;;;;4.60;3.00;;;;;;;;;;108287;1251;26634;-82
2023/07/10 10:59:09;;;;;;;4.80;2.80;;;;;;;;;;108216;1251;24273;-82
2023/07/10 11:01:36;;;;;;;3.30;2.80;;;;;;;;;;108196;1251;22609;-82
2023/07/10 11:04:09;;;;;;;7.80;3.10;;;;;;;;;;108042;1251;25467;-82
2023/07/10 11:06:38;;;;;;;4.90;3.20;;;;;;;;;;108188;1251;25375;-82
2023/07/10 11:09:11;;;;;;;3.40;2.90;;;;;;;;;;108479;1251;22615;-81
2023/07/10 11:11:37;;;;;;;5.20;3.90;;;;;;;;;;108363;1251;25475;-82
2023/07/10 11:14:04;;;;;;;6.40;3.80;;;;;;;;;;108492;1251;23901;-82
2023/07/10 11:16:31;;;;;;;6.60;3.90;;;;;;;;;;108274;1251;22553;-82
2023/07/10 11:18:58;;;;;;;3.90;3.10;;;;;;;;;;108531;1251;22539;-82
2023/07/10 11:21:24;;;;;;;4.50;3.70;;;;;;;;;;108196;1251;24263;-81
2023/07/10 11:23:51;;;;;;;5.30;3.10;;;;;;;;;;108154;1251;22538;-81
2023/07/10 11:26:20;;;;;;;5.10;3.60;;;;;;;;;;108159;1251;22803;-81
2023/07/10 11:28:51;;;;;;;4.60;3.40;;;;;;;;;;108111;1251;22699;-81
2023/07/10 11:31:23;;;;;;;4.50;3.10;;;;;;;;;;108262;1251;25365;-81
2023/07/10 11:33:53;;;;;;;5.40;3.20;;;;;;;;;;108005;1256;22529;-81
2023/07/10 11:36:26;;;;;;;3.90;3.00;;;;;;;;;;108020;1250;25370;-82
2023/07/10 11:39:11;;;;;;;3.80;3.20;;;;;;;;;;108163;1254;24824;-81
2023/07/10 11:41:37;;;;;;;4.10;3.40;;;;;;;;;;108208;1250;25391;-81
2023/07/10 11:44:19;;;;;;;5.30;3.40;;;;;;;;;;108027;1251;24343;-81
2023/07/10 11:46:54;;;;;;;5.80;3.50;;;;;;;;;;108063;1251;22560;-81
2023/07/10 11:49:21;;;;;;;6.30;3.70;;;;;;;;;;108268;1252;22543;-81
2023/07/10 11:52:06;;;;;;;8.30;4.00;;;;;;;;;;108052;1251;22540;-81
2023/07/10 11:54:32;;;;;;;6.10;4.60;;;;;;;;;;108241;1254;22524;-80
2023/07/10 11:57:01;;;;;;;9.00;4.90;;;;;;;;;;108230;1254;27086;-80
2023/07/10 11:59:27;;;;;;;11.30;5.90;;;;;;;;;;108234;1251;23055;-81
2023/07/10 12:01:54;;;;;;;10.10;5.00;;;;;;;;;;108224;1254;24881;-80
2023/07/10 12:04:22;;;;;;;15.60;7.20;;;;;;;;;;108956;1250;25916;-80
2023/07/10 12:06:49;;;;;;;6.50;4.80;;;;;;;;;;108123;1251;22542;-80
2023/07/10 12:09:15;;;;;;;9.10;4.80;;;;;;;;;;108304;1251;22547;-81
2023/07/10 12:11:41;;;;;;;4.10;3.40;;;;;;;;;;108242;1251;22538;-81
2023/07/10 12:14:11;;;;;;;7.20;4.20;;;;;;;;;;108246;1251;24408;-81
2023/07/10 12:17:03;;;;;;;7.60;3.90;;;;;;;;;;108158;1251;22618;-81
2023/07/10 12:19:32;;;;;;;5.40;3.60;;;;;;;;;;108569;1252;22545;-81
2023/07/10 12:21:59;;;;;;;6.20;3.90;;;;;;;;;;108096;1251;25476;-81
2023/07/10 12:24:26;;;;;;;7.00;3.70;;;;;;;;;;108208;1251;23113;-80
2023/07/10 12:26:52;;;;;;;4.20;3.70;;;;;;;;;;108097;1251;23236;-80
2023/07/10 12:29:19;;;;;;;7.70;4.10;;;;;;;;;;108423;1251;25491;-80
2023/07/10 12:31:46;;;;;;;8.00;4.70;;;;;;;;;;108142;1251;22669;-80
2023/07/10 12:34:18;;;;;;;6.50;4.80;;;;;;;;;;108101;1250;23099;-82
2023/07/10 12:36:47;;;;;;;6.70;3.90;;;;;;;;;;108090;1251;22549;-81
2023/07/10 12:39:14;;;;;;;8.00;4.10;;;;;;;;;;108095;1251;22644;-80
2023/07/10 12:41:41;;;;;;;7.90;4.40;;;;;;;;;;107875;1251;22678;-80
2023/07/10 12:44:15;;;;;;;10.00;4.40;;;;;;;;;;107843;1251;22563;-81
2023/07/10 12:46:41;;;;;;;8.30;3.80;;;;;;;;;;107892;1251;25519;-81
2023/07/10 12:49:12;;;;;;;5.90;4.30;;;;;;;;;;109546;1250;22450;-81
2023/07/10 12:51:39;;;;;;;9.40;3.40;;;;;;;;;;108848;1251;24337;-81
2023/07/10 12:54:13;;;;;;;6.10;3.20;;;;;;;;;;108227;1252;22662;-81
2023/07/10 12:56:39;;;;;;;6.50;3.70;;;;;;;;;;108226;1251;23072;-82
2023/07/10 12:59:13;;;;;;;9.00;3.50;;;;;;;;;;108225;1251;22794;-81
2023/07/10 13:01:45;;;;;;;8.20;3.80;;;;;;;;;;108048;1251;25387;-81
2023/07/10 13:04:15;;;;;;;9.60;4.60;;;;;;;;;;108132;1251;23179;-80
2023/07/10 13:06:41;;;;;;;6.90;4.40;;;;;;;;;;108183;1251;22663;-81
2023/07/10 13:09:16;;;;;;;6.80;3.90;;;;;;;;;;107935;1257;22536;-80
2023/07/10 13:11:43;;;;;;;7.20;3.90;;;;;;;;;;108170;1251;22566;-81
2023/07/10 13:14:15;;;;;;;12.70;4.10;;;;;;;;;;107891;1251;22607;-81
2023/07/10 13:16:44;;;;;;;8.60;4.10;;;;;;;;;;107990;1251;24379;-80
2023/07/10 13:19:10;;;;;;;9.40;4.40;;;;;;;;;;108099;1254;25299;-80
2023/07/10 13:21:37;;;;;;;7.50;4.50;;;;;;;;;;108123;1252;22543;-80
2023/07/10 13:24:03;;;;;;;9.30;4.50;;;;;;;;;;108098;1253;22523;-83
2023/07/10 13:26:30;;;;;;;8.60;4.50;;;;;;;;;;108352;1251;25397;-80
2023/07/10 13:28:57;;;;;;;7.70;4.00;;;;;;;;;;108491;1251;22557;-80
2023/07/10 13:31:24;;;;;;;5.90;4.00;;;;;;;;;;108394;1251;25470;-80
2023/07/10 13:33:51;;;;;;;11.20;4.30;;;;;;;;;;109174;1252;22230;-80
2023/07/10 13:36:18;;;;;;;9.30;4.20;;;;;;;;;;110608;1249;22375;-80
2023/07/10 13:38:45;;;;;;;5.60;4.30;;;;;;;;;;110440;1251;22971;-80
2023/07/10 13:41:15;;;;;;;13.30;5.50;;;;;;;;;;108888;1251;25448;-80
2023/07/10 13:43:41;;;;;;;10.40;4.10;;;;;;;;;;108127;1251;25545;-81
2023/07/10 13:46:17;;;;;;;6.00;5.10;;;;;;;;;;107997;1251;25465;-81
2023/07/10 13:48:43;;;;;;;7.40;5.10;;;;;;;;;;108047;1251;24277;-81
2023/07/10 13:51:13;;;;;;;9.10;4.20;;;;;;;;;;108178;1251;22584;-80
2023/07/10 13:53:40;;;;;;;13.30;5.40;;;;;;;;;;108101;1251;23305;-81
2023/07/10 13:56:17;;;;;;;8.70;4.40;;;;;;;;;;107943;1251;22612;-80
2023/07/10 13:58:44;;;;;;;4.80;3.90;;;;;;;;;;108138;1251;22553;-82
2023/07/10 14:01:11;;;;;;;7.20;4.10;;;;;;;;;;108121;1251;22780;-80
2023/07/10 14:03:37;;;;;;;7.80;4.20;;;;;;;;;;107871;1251;22548;-81
2023/07/10 14:06:19;;;;;;;7.60;4.50;;;;;;;;;;107903;1255;22558;-81
2023/07/10 14:08:46;;;;;;;5.60;4.00;;;;;;;;;;108074;1251;23192;-81
2023/07/10 14:11:12;;;;;;;6.50;3.80;;;;;;;;;;108156;1251;25348;-81
2023/07/10 14:13:39;;;;;;;6.00;3.70;;;;;;;;;;108060;1251;22661;-81
2023/07/10 14:16:06;;;;;;;5.20;4.00;;;;;;;;;;108153;1251;22550;-81
2023/07/10 14:18:33;;;;;;;8.40;4.20;;;;;;;;;;108897;1251;22162;-81
2023/07/10 14:21:02;;;;;;;5.20;4.50;;;;;;;;;;110604;1251;22786;-81
2023/07/10 14:23:28;;;;;;;5.60;3.90;;;;;;;;;;110402;1251;25295;-82
2023/07/10 14:25:55;;;;;;;6.10;4.10;;;;;;;;;;108030;1251;22520;-81
2023/07/10 14:28:25;;;;;;;5.90;3.60;;;;;;;;;;107807;1251;22535;-82